»·PEaware :: ANW757 CYVR-KLAX

ANW757 :: CYVR-KLAX

FLIGHT INFORMATION

Flight Status: Arrived
Operator:
Air Northwest (website)
More flights by this operator :: More flights under this callsign
Pilot: Lee W. (44)
Aircraft: Unknown
(A359)
More flights by this aircraft type
Origin: CYVR Vancouver Intl
Canada
Destination: KLAX Los Angeles Intl
United States
More flights between these airports :: More routes between these airports
Route: SEA J65 LMT DCT EHF DCT ARVIN
File this flight plan on PilotEdge
Remarks:
Altitude:
(Current/Filed)
37,000ft
Speed:
(Current/Filed)
540kts
Departed: 27-Feb-11 10:33 AM
Arrived: 27-Feb-11 01:07 PM
Distance/Time
Traveled:
940nm/2:33
Distance/Time
To Go:
Arrived

Flight Plot

Page will automatically refresh every two minutes.


Map Options




Map Legend


Flown Route
Filed Route
Departure Airport
Arrival Airport
Navaid (VOR, NDB)
Fix

Horizontal Profiles

Position Reports

Time Latitude Longitude Heading Altitude Ground
Speed
27-Feb-11 10:03 49.198464 -123.172008 279 23ft 0kts
27-Feb-11 10:04 49.198464 -123.172008 279 23ft 0kts
27-Feb-11 10:05 49.198464 -123.172008 279 23ft 0kts
27-Feb-11 10:06 49.198464 -123.172008 279 23ft 0kts
27-Feb-11 10:07 49.198464 -123.172008 279 23ft 0kts
27-Feb-11 10:08 49.198464 -123.172008 279 23ft 0kts
27-Feb-11 10:09 49.198464 -123.172008 279 23ft 0kts
27-Feb-11 10:10 49.198464 -123.172008 279 23ft 0kts
27-Feb-11 10:11 49.198464 -123.172008 279 23ft 0kts
27-Feb-11 10:12 49.198464 -123.172008 279 23ft 0kts
27-Feb-11 10:13 49.198464 -123.172008 279 23ft 0kts
27-Feb-11 10:14 49.198464 -123.172008 279 23ft 0kts
27-Feb-11 10:15 49.198464 -123.172008 279 23ft 0kts
27-Feb-11 10:16 49.198464 -123.172008 279 23ft 0kts
27-Feb-11 10:17 49.198464 -123.172008 279 23ft 0kts
27-Feb-11 10:18 49.198464 -123.172008 279 23ft 0kts
27-Feb-11 10:19 49.198464 -123.172008 279 23ft 0kts
27-Feb-11 10:20 49.198464 -123.172008 279 23ft 0kts
27-Feb-11 10:21 49.198464 -123.172008 279 23ft 0kts
27-Feb-11 10:22 49.198464 -123.172008 279 23ft 0kts
27-Feb-11 10:23 49.198464 -123.172008 279 23ft 0kts
27-Feb-11 10:24 49.198464 -123.172008 279 23ft 0kts
27-Feb-11 10:25 49.198464 -123.172008 279 23ft 0kts
27-Feb-11 10:26 49.198464 -123.172008 279 23ft 0kts
27-Feb-11 10:27 49.199299 -123.173395 335 23ft 15kts
27-Feb-11 10:28 49.200709 -123.181232 281 23ft 25kts
27-Feb-11 10:29 49.202182 -123.194211 279 23ft 25kts
27-Feb-11 10:30 49.203538 -123.201014 333 23ft 13kts
27-Feb-11 10:31 49.204118 -123.201261 351 23ft 0kts
27-Feb-11 10:32 49.203525 -123.186839 102 24ft 151kts
27-Feb-11 10:33 49.195636 -123.108642 100 1122ft 249kts
27-Feb-11 10:34 49.156119 -123.046001 181 2603ft 247kts
27-Feb-11 10:35 49.087326 -123.039633 172 5117ft 253kts
27-Feb-11 10:36 49.050073 -123.110630 279 13101ft 295kts
27-Feb-11 10:37 49.072316 -123.231373 231 15705ft 305kts
27-Feb-11 10:38 49.006169 -123.226083 141 16003ft 282kts
27-Feb-11 10:39 48.938331 -123.168016 154 16445ft 284kts
27-Feb-11 10:40 48.853843 -123.108202 155 17087ft 349kts
27-Feb-11 10:41 48.764449 -123.046055 156 18379ft 361kts
27-Feb-11 10:42 48.672611 -122.983043 157 19657ft 371kts
27-Feb-11 10:43 48.577514 -122.918092 157 20944ft 379kts
27-Feb-11 10:44 48.481511 -122.852805 157 22213ft 384kts
27-Feb-11 10:45 48.384032 -122.786795 156 23482ft 386kts
27-Feb-11 10:46 48.273188 -122.712077 155 26021ft 508kts
27-Feb-11 10:47 48.143825 -122.637991 160 32463ft 501kts
27-Feb-11 10:48 48.011867 -122.576219 160 34831ft 500kts
27-Feb-11 10:49 47.884298 -122.515406 162 35445ft 485kts
27-Feb-11 10:50 47.756639 -122.456304 164 35825ft 478kts
27-Feb-11 10:51 47.629928 -122.398181 165 36187ft 475kts
27-Feb-11 10:52 47.504310 -122.340857 165 36533ft 474kts
27-Feb-11 10:53 47.376023 -122.302152 176 36743ft 470kts
27-Feb-11 10:54 47.327524 -122.296447 175 36758ft 465kts
27-Feb-11 10:55 47.327524 -122.296447 175 36758ft 465kts
27-Feb-11 10:56 47.239184 -122.285854 177 36763ft 472kts
27-Feb-11 10:57 47.108567 -122.270216 177 36762ft 473kts
27-Feb-11 10:58 46.978018 -122.254653 177 36766ft 474kts
27-Feb-11 10:59 46.847609 -122.239186 176 36769ft 478kts
27-Feb-11 11:01 46.582302 -122.207928 176 36766ft 482kts
27-Feb-11 11:02 46.449351 -122.192381 176 36766ft 482kts
27-Feb-11 11:03 46.318915 -122.177214 175 36773ft 476kts
27-Feb-11 11:04 46.187622 -122.162007 175 36773ft 473kts
27-Feb-11 11:05 46.050610 -122.146213 177 36772ft 516kts
27-Feb-11 11:06 45.905615 -122.129620 176 36770ft 526kts
27-Feb-11 11:07 45.760080 -122.113004 175 36770ft 524kts
27-Feb-11 11:08 45.615953 -122.096642 175 36770ft 522kts
27-Feb-11 11:09 45.472190 -122.080412 175 36770ft 520kts
27-Feb-11 11:10 45.395588 -122.071799 175 36770ft 519kts
27-Feb-11 11:11 45.328851 -122.064316 175 36769ft 518kts
27-Feb-11 11:12 45.186457 -122.048407 175 36770ft 518kts
27-Feb-11 11:13 45.043701 -122.032537 175 36770ft 518kts
27-Feb-11 11:14 44.899155 -122.016510 176 36900ft 532kts
27-Feb-11 11:15 44.752742 -122.000387 178 36903ft 521kts
27-Feb-11 11:16 44.610349 -121.984824 179 36902ft 505kts
27-Feb-11 11:17 44.473610 -121.969938 179 36900ft 494kts
27-Feb-11 11:18 44.340649 -121.955507 179 36866ft 486kts
27-Feb-11 11:19 44.206515 -121.941030 180 36867ft 478kts
27-Feb-11 11:20 44.075153 -121.926915 180 36865ft 474kts
27-Feb-11 11:21 43.944261 -121.912911 180 36864ft 472kts
27-Feb-11 11:22 43.934228 -121.911840 180 36864ft 471kts
27-Feb-11 11:23 43.934228 -121.911840 180 36864ft 471kts
27-Feb-11 11:24 43.934228 -121.911840 180 36864ft 471kts
27-Feb-11 11:25 43.920910 -121.910414 180 36864ft 469kts
27-Feb-11 11:26 43.833923 -121.901153 180 36863ft 469kts
27-Feb-11 11:27 43.704222 -121.887387 180 36861ft 469kts
27-Feb-11 11:28 43.574246 -121.873651 180 36859ft 469kts
27-Feb-11 11:29 43.423260 -121.857769 180 36857ft 469kts
27-Feb-11 11:30 43.317256 -121.846665 180 36869ft 469kts
27-Feb-11 11:31 43.187549 -121.833132 180 36868ft 469kts
27-Feb-11 11:32 43.134255 -121.827588 180 36867ft 469kts
27-Feb-11 11:33 43.004443 -121.814125 180 36866ft 469kts
27-Feb-11 11:34 42.875706 -121.800865 179 36971ft 464kts
27-Feb-11 11:35 42.747606 -121.787727 175 36986ft 469kts
27-Feb-11 11:36 42.616853 -121.774290 173 36983ft 479kts
27-Feb-11 11:37 42.483455 -121.760669 173 36982ft 486kts
27-Feb-11 11:38 42.349615 -121.747073 172 36985ft 491kts
27-Feb-11 11:39 42.213519 -121.733312 172 36987ft 493kts
27-Feb-11 11:40 42.081435 -121.696109 159 36987ft 490kts
27-Feb-11 11:41 41.951782 -121.639685 159 36985ft 490kts
27-Feb-11 11:42 41.822936 -121.583949 159 36984ft 491kts
27-Feb-11 11:43 41.693805 -121.528329 159 36983ft 491kts
27-Feb-11 11:44 41.566533 -121.473868 160 36986ft 491kts
27-Feb-11 11:45 41.436754 -121.418664 160 36986ft 491kts
27-Feb-11 11:46 41.308460 -121.364110 160 36993ft 490kts
27-Feb-11 11:47 41.255605 -121.341605 163 37011ft 494kts
27-Feb-11 11:48 41.150488 -121.297242 163 37010ft 524kts
27-Feb-11 11:49 41.025615 -121.244611 162 37010ft 523kts
27-Feb-11 11:50 40.901699 -121.192582 162 37010ft 521kts
27-Feb-11 11:51 40.764102 -121.135053 162 37010ft 519kts
27-Feb-11 11:52 40.626461 -121.077759 162 37010ft 519kts
27-Feb-11 11:53 40.489403 -121.020953 162 37010ft 518kts
27-Feb-11 11:54 40.352586 -120.964461 163 37149ft 527kts
27-Feb-11 11:55 40.215044 -120.907962 164 37152ft 512kts
27-Feb-11 11:56 40.080433 -120.852916 163 36992ft 505kts
27-Feb-11 11:57 39.946194 -120.798206 162 36990ft 506kts
27-Feb-11 11:58 39.812573 -120.743972 162 36989ft 506kts
27-Feb-11 11:59 39.678604 -120.689821 162 36988ft 507kts
27-Feb-11 12:00 39.544843 -120.635975 162 36988ft 508kts
27-Feb-11 12:01 39.410097 -120.581952 162 37015ft 506kts
27-Feb-11 12:02 39.284517 -120.531809 162 37020ft 504kts
27-Feb-11 12:03 39.270843 -120.526360 162 37020ft 504kts
27-Feb-11 12:04 39.207945 -120.501323 162 37020ft 501kts
27-Feb-11 12:05 39.078285 -120.450065 163 37020ft 501kts
27-Feb-11 12:06 38.945889 -120.397858 163 37019ft 500kts
27-Feb-11 12:07 38.813177 -120.345596 163 37019ft 500kts
27-Feb-11 12:08 38.680006 -120.293322 164 36991ft 507kts
27-Feb-11 12:09 38.543067 -120.239857 163 36990ft 523kts
27-Feb-11 12:10 38.403932 -120.185706 163 36990ft 524kts
27-Feb-11 12:11 38.267609 -120.132860 162 36989ft 522kts
27-Feb-11 12:12 38.128864 -120.079288 162 36990ft 521kts
27-Feb-11 12:13 37.990521 -120.026084 162 36994ft 519kts
27-Feb-11 12:14 37.890512 -119.987730 163 37209ft 520kts
27-Feb-11 12:15 37.753369 -119.935374 163 37209ft 510kts
27-Feb-11 12:16 37.618170 -119.883934 163 37217ft 504kts
27-Feb-11 12:17 37.515516 -119.845005 162 37216ft 498kts
27-Feb-11 12:18 37.383552 -119.795121 162 37214ft 494kts
27-Feb-11 12:19 37.287367 -119.758880 161 37219ft 492kts
27-Feb-11 12:21 37.048879 -119.669437 161 37226ft 490kts
27-Feb-11 12:22 36.918710 -119.620863 161 37225ft 490kts
27-Feb-11 12:23 36.807614 -119.579543 160 37223ft 490kts
27-Feb-11 12:24 36.677000 -119.531124 160 37222ft 490kts
27-Feb-11 12:25 36.546773 -119.483021 160 37221ft 489kts
27-Feb-11 12:26 36.419092 -119.436206 161 37226ft 490kts
27-Feb-11 12:27 36.290795 -119.389258 163 37231ft 490kts
27-Feb-11 12:28 36.160442 -119.341626 163 37231ft 493kts
27-Feb-11 12:29 36.028745 -119.293658 164 37230ft 495kts
27-Feb-11 12:30 35.874670 -119.237757 163 37239ft 496kts
27-Feb-11 12:31 35.764724 -119.197992 163 37238ft 496kts
27-Feb-11 12:32 35.631832 -119.150061 164 37208ft 501kts
27-Feb-11 12:33 35.499039 -119.101745 162 37200ft 507kts
27-Feb-11 12:34 35.389860 -118.989607 138 37210ft 526kts
27-Feb-11 12:35 35.283380 -118.868521 138 37212ft 533kts
27-Feb-11 12:36 35.173448 -118.751058 153 37166ft 515kts
27-Feb-11 12:37 35.045495 -118.705845 164 37208ft 473kts
27-Feb-11 12:38 34.919367 -118.660452 164 37122ft 475kts
27-Feb-11 12:39 34.790601 -118.614105 165 37115ft 491kts
27-Feb-11 12:40 34.664498 -118.567074 154 33497ft 479kts
27-Feb-11 12:41 34.543458 -118.494913 153 28591ft 486kts
27-Feb-11 12:42 34.448826 -118.439510 153 25900ft 473kts
27-Feb-11 12:43 34.334662 -118.373239 154 21446ft 485kts
27-Feb-11 12:44 34.212891 -118.302495 154 16249ft 481kts
27-Feb-11 12:45 34.094038 -118.306728 201 14280ft 399kts
27-Feb-11 12:46 33.995110 -118.304415 153 13558ft 340kts
27-Feb-11 12:47 33.916003 -118.252078 151 12356ft 314kts
27-Feb-11 12:48 33.842146 -118.202810 151 11138ft 294kts
27-Feb-11 12:49 33.797399 -118.126325 115 9900ft 282kts
27-Feb-11 12:50 33.765294 -118.043098 115 8801ft 248kts
27-Feb-11 12:51 33.754070 -117.970184 84 7534ft 223kts
27-Feb-11 12:52 33.759929 -117.896449 83 7293ft 222kts
27-Feb-11 12:53 33.765876 -117.822590 80 6928ft 221kts
27-Feb-11 12:54 33.813398 -117.819945 323 5634ft 213kts
27-Feb-11 12:55 33.858177 -117.858848 323 4391ft 189kts
27-Feb-11 12:56 33.900099 -117.895275 323 3457ft 185kts
27-Feb-11 12:57 33.942184 -117.931843 323 3420ft 187kts
27-Feb-11 12:58 33.973511 -117.977089 271 3430ft 187kts
27-Feb-11 12:59 33.971847 -118.039539 266 3420ft 187kts
27-Feb-11 13:01 33.961801 -118.161797 262 3420ft 187kts
27-Feb-11 13:02 33.955642 -118.224410 262 2709ft 187kts
27-Feb-11 13:03 33.949404 -118.286380 261 1725ft 185kts
27-Feb-11 13:04 33.943164 -118.347798 261 744ft 183kts
27-Feb-11 13:05 33.937347 -118.404057 262 135ft 77kts
27-Feb-11 13:06 33.937986 -118.414173 358 135ft 17kts
27-Feb-11 13:07 33.939412 -118.408815 32 135ft 8kts
27-Feb-11 13:08 33.940788 -118.407756 70 135ft 0kts
27-Feb-11 13:09 33.940788 -118.407756 70 135ft 0kts

Navigation Log

Ident Type
Flight plan parsing failed, navigation log unavailable